sensor_id;sensor_type;location;lat;lon;timestamp;P1;durP1;ratioP1;P2;durP2;ratioP2
82147;SDS011;71718;50.480;12.110;2024-03-29T00:00:51;9.70;;;9.30;;
82147;SDS011;71718;50.480;12.110;2024-03-29T00:03:17;10.27;;;9.88;;
82147;SDS011;71718;50.480;12.110;2024-03-29T00:05:42;9.48;;;9.10;;
82147;SDS011;71718;50.480;12.110;2024-03-29T00:08:07;9.93;;;9.52;;
82147;SDS011;71718;50.480;12.110;2024-03-29T00:10:33;11.15;;;10.65;;
82147;SDS011;71718;50.480;12.110;2024-03-29T00:12:58;10.32;;;9.82;;
82147;SDS011;71718;50.480;12.110;2024-03-29T00:15:24;11.48;;;11.02;;
82147;SDS011;71718;50.480;12.110;2024-03-29T00:17:49;8.90;;;8.52;;
82147;SDS011;71718;50.480;12.110;2024-03-29T00:20:15;11.20;;;10.80;;
82147;SDS011;71718;50.480;12.110;2024-03-29T00:22:40;10.70;;;10.30;;
82147;SDS011;71718;50.480;12.110;2024-03-29T00:25:06;11.40;;;11.00;;
82147;SDS011;71718;50.480;12.110;2024-03-29T00:27:32;10.55;;;10.10;;
82147;SDS011;71718;50.480;12.110;2024-03-29T00:29:57;10.63;;;10.23;;
82147;SDS011;71718;50.480;12.110;2024-03-29T00:32:22;11.52;;;11.02;;
82147;SDS011;71718;50.480;12.110;2024-03-29T00:34:51;11.13;;;10.73;;
82147;SDS011;71718;50.480;12.110;2024-03-29T00:37:18;11.77;;;11.27;;
82147;SDS011;71718;50.480;12.110;2024-03-29T00:39:44;12.63;;;11.77;;
82147;SDS011;71718;50.480;12.110;2024-03-29T00:42:10;11.55;;;11.15;;
82147;SDS011;71718;50.480;12.110;2024-03-29T00:44:35;11.23;;;10.73;;
82147;SDS011;71718;50.480;12.110;2024-03-29T00:47:01;12.77;;;12.05;;
82147;SDS011;71718;50.480;12.110;2024-03-29T00:49:26;11.82;;;11.43;;
82147;SDS011;71718;50.480;12.110;2024-03-29T00:51:52;11.95;;;11.55;;
82147;SDS011;71718;50.480;12.110;2024-03-29T00:54:17;12.55;;;12.05;;
82147;SDS011;71718;50.480;12.110;2024-03-29T00:56:43;12.98;;;12.48;;
82147;SDS011;71718;50.480;12.110;2024-03-29T00:59:08;11.07;;;10.68;;
82147;SDS011;71718;50.480;12.110;2024-03-29T01:01:33;11.32;;;10.93;;
82147;SDS011;71718;50.480;12.110;2024-03-29T01:03:59;12.23;;;11.82;;
82147;SDS011;71718;50.480;12.110;2024-03-29T01:06:24;12.68;;;12.18;;
82147;SDS011;71718;50.480;12.110;2024-03-29T01:08:50;12.20;;;11.70;;
82147;SDS011;71718;50.480;12.110;2024-03-29T01:11:15;12.52;;;12.02;;
82147;SDS011;71718;50.480;12.110;2024-03-29T01:13:40;12.70;;;12.20;;
82147;SDS011;71718;50.480;12.110;2024-03-29T01:16:06;12.50;;;11.90;;
82147;SDS011;71718;50.480;12.110;2024-03-29T01:18:32;12.57;;;11.77;;
82147;SDS011;71718;50.480;12.110;2024-03-29T01:20:57;13.02;;;12.63;;
82147;SDS011;71718;50.480;12.110;2024-03-29T01:23:23;13.30;;;12.70;;
82147;SDS011;71718;50.480;12.110;2024-03-29T01:25:48;11.13;;;10.63;;
82147;SDS011;71718;50.480;12.110;2024-03-29T01:28:14;11.05;;;10.65;;
82147;SDS011;71718;50.480;12.110;2024-03-29T01:30:39;10.85;;;10.45;;
82147;SDS011;71718;50.480;12.110;2024-03-29T01:33:05;11.43;;;10.82;;
82147;SDS011;71718;50.480;12.110;2024-03-29T01:35:30;12.55;;;12.05;;
82147;SDS011;71718;50.480;12.110;2024-03-29T01:37:56;10.90;;;10.50;;
82147;SDS011;71718;50.480;12.110;2024-03-29T01:40:21;11.77;;;11.38;;
82147;SDS011;71718;50.480;12.110;2024-03-29T01:42:46;11.90;;;11.50;;
82147;SDS011;71718;50.480;12.110;2024-03-29T01:45:12;13.50;;;12.88;;
82147;SDS011;71718;50.480;12.110;2024-03-29T01:47:37;13.13;;;12.63;;
82147;SDS011;71718;50.480;12.110;2024-03-29T01:50:03;13.13;;;12.43;;
82147;SDS011;71718;50.480;12.110;2024-03-29T01:52:29;13.32;;;12.65;;
82147;SDS011;71718;50.480;12.110;2024-03-29T01:54:55;12.75;;;11.98;;
82147;SDS011;71718;50.480;12.110;2024-03-29T01:57:21;11.27;;;10.85;;
82147;SDS011;71718;50.480;12.110;2024-03-29T01:59:47;12.30;;;11.75;;
82147;SDS011;71718;50.480;12.110;2024-03-29T02:02:13;12.40;;;12.00;;
82147;SDS011;71718;50.480;12.110;2024-03-29T02:04:39;12.30;;;11.80;;
82147;SDS011;71718;50.480;12.110;2024-03-29T02:07:05;8.50;;;8.18;;
82147;SDS011;71718;50.480;12.110;2024-03-29T02:09:30;11.82;;;11.32;;
82147;SDS011;71718;50.480;12.110;2024-03-29T02:11:56;12.45;;;11.95;;
82147;SDS011;71718;50.480;12.110;2024-03-29T02:14:21;14.15;;;13.20;;
82147;SDS011;71718;50.480;12.110;2024-03-29T02:16:47;12.02;;;11.52;;
82147;SDS011;71718;50.480;12.110;2024-03-29T02:19:12;11.13;;;10.73;;
82147;SDS011;71718;50.480;12.110;2024-03-29T02:21:40;14.43;;;13.80;;
82147;SDS011;71718;50.480;12.110;2024-03-29T02:24:08;11.18;;;10.65;;
82147;SDS011;71718;50.480;12.110;2024-03-29T02:26:34;12.25;;;11.75;;
82147;SDS011;71718;50.480;12.110;2024-03-29T02:29:00;13.07;;;12.57;;
82147;SDS011;71718;50.480;12.110;2024-03-29T02:31:25;8.70;;;8.30;;
82147;SDS011;71718;50.480;12.110;2024-03-29T02:33:51;11.98;;;11.57;;
82147;SDS011;71718;50.480;12.110;2024-03-29T02:36:16;12.90;;;12.40;;
82147;SDS011;71718;50.480;12.110;2024-03-29T02:38:41;12.95;;;12.35;;
82147;SDS011;71718;50.480;12.110;2024-03-29T02:41:07;12.25;;;11.85;;
82147;SDS011;71718;50.480;12.110;2024-03-29T02:43:32;13.45;;;12.95;;
82147;SDS011;71718;50.480;12.110;2024-03-29T02:45:58;11.85;;;11.40;;
82147;SDS011;71718;50.480;12.110;2024-03-29T02:48:23;12.20;;;11.80;;
82147;SDS011;71718;50.480;12.110;2024-03-29T02:50:49;11.63;;;11.23;;
82147;SDS011;71718;50.480;12.110;2024-03-29T02:53:14;14.02;;;13.05;;
82147;SDS011;71718;50.480;12.110;2024-03-29T02:55:41;13.20;;;12.70;;
82147;SDS011;71718;50.480;12.110;2024-03-29T02:58:06;11.80;;;11.30;;
82147;SDS011;71718;50.480;12.110;2024-03-29T03:00:33;12.95;;;12.45;;
82147;SDS011;71718;50.480;12.110;2024-03-29T03:02:58;13.30;;;12.55;;
82147;SDS011;71718;50.480;12.110;2024-03-29T03:05:24;12.25;;;11.77;;
82147;SDS011;71718;50.480;12.110;2024-03-29T03:07:49;12.05;;;11.55;;
82147;SDS011;71718;50.480;12.110;2024-03-29T03:10:15;14.50;;;14.00;;
82147;SDS011;71718;50.480;12.110;2024-03-29T03:12:40;11.30;;;10.90;;
82147;SDS011;71718;50.480;12.110;2024-03-29T03:15:06;12.80;;;12.30;;
82147;SDS011;71718;50.480;12.110;2024-03-29T03:17:31;11.63;;;11.23;;
82147;SDS011;71718;50.480;12.110;2024-03-29T03:19:57;13.32;;;12.82;;
82147;SDS011;71718;50.480;12.110;2024-03-29T03:22:22;12.40;;;11.90;;
82147;SDS011;71718;50.480;12.110;2024-03-29T03:24:48;12.38;;;11.90;;
82147;SDS011;71718;50.480;12.110;2024-03-29T03:27:13;12.10;;;11.60;;
82147;SDS011;71718;50.480;12.110;2024-03-29T03:29:39;12.07;;;11.57;;
82147;SDS011;71718;50.480;12.110;2024-03-29T03:32:05;9.10;;;8.73;;
82147;SDS011;71718;50.480;12.110;2024-03-29T03:34:31;11.13;;;10.73;;
82147;SDS011;71718;50.480;12.110;2024-03-29T03:36:57;12.65;;;12.10;;
82147;SDS011;71718;50.480;12.110;2024-03-29T03:39:22;12.82;;;12.15;;
82147;SDS011;71718;50.480;12.110;2024-03-29T03:41:48;12.98;;;12.48;;
82147;SDS011;71718;50.480;12.110;2024-03-29T03:44:13;12.32;;;11.82;;
82147;SDS011;71718;50.480;12.110;2024-03-29T03:46:38;11.60;;;11.20;;
82147;SDS011;71718;50.480;12.110;2024-03-29T03:49:04;14.80;;;14.25;;
82147;SDS011;71718;50.480;12.110;2024-03-29T03:51:29;13.57;;;13.07;;
82147;SDS011;71718;50.480;12.110;2024-03-29T03:53:55;13.75;;;13.25;;
82147;SDS011;71718;50.480;12.110;2024-03-29T03:56:20;14.18;;;13.68;;
82147;SDS011;71718;50.480;12.110;2024-03-29T03:58:45;14.40;;;13.90;;
82147;SDS011;71718;50.480;12.110;2024-03-29T04:01:11;13.75;;;13.05;;
82147;SDS011;71718;50.480;12.110;2024-03-29T04:03:36;14.60;;;13.95;;
82147;SDS011;71718;50.480;12.110;2024-03-29T04:06:05;11.85;;;11.43;;
82147;SDS011;71718;50.480;12.110;2024-03-29T04:08:31;13.85;;;13.30;;
82147;SDS011;71718;50.480;12.110;2024-03-29T04:10:57;12.80;;;12.20;;
82147;SDS011;71718;50.480;12.110;2024-03-29T04:13:23;11.73;;;11.32;;
82147;SDS011;71718;50.480;12.110;2024-03-29T04:15:48;12.20;;;11.57;;
82147;SDS011;71718;50.480;12.110;2024-03-29T04:18:14;11.88;;;11.48;;
82147;SDS011;71718;50.480;12.110;2024-03-29T04:20:39;12.82;;;11.95;;
82147;SDS011;71718;50.480;12.110;2024-03-29T04:23:05;11.80;;;11.40;;
82147;SDS011;71718;50.480;12.110;2024-03-29T04:25:31;11.65;;;11.05;;
82147;SDS011;71718;50.480;12.110;2024-03-29T04:27:56;11.43;;;11.02;;
82147;SDS011;71718;50.480;12.110;2024-03-29T04:30:22;10.77;;;10.30;;
82147;SDS011;71718;50.480;12.110;2024-03-29T04:32:47;12.38;;;11.98;;
82147;SDS011;71718;50.480;12.110;2024-03-29T04:35:13;8.52;;;8.02;;
82147;SDS011;71718;50.480;12.110;2024-03-29T04:37:38;13.60;;;13.10;;
82147;SDS011;71718;50.480;12.110;2024-03-29T04:40:04;10.20;;;9.80;;
82147;SDS011;71718;50.480;12.110;2024-03-29T04:42:29;12.63;;;12.13;;
82147;SDS011;71718;50.480;12.110;2024-03-29T04:44:55;11.52;;;11.13;;
82147;SDS011;71718;50.480;12.110;2024-03-29T04:47:20;11.80;;;11.40;;
82147;SDS011;71718;50.480;12.110;2024-03-29T04:49:46;11.60;;;11.20;;
82147;SDS011;71718;50.480;12.110;2024-03-29T04:52:11;12.05;;;11.30;;
82147;SDS011;71718;50.480;12.110;2024-03-29T04:54:36;12.23;;;11.82;;
82147;SDS011;71718;50.480;12.110;2024-03-29T04:57:02;12.05;;;11.30;;
82147;SDS011;71718;50.480;12.110;2024-03-29T04:59:28;12.35;;;11.52;;
82147;SDS011;71718;50.480;12.110;2024-03-29T05:01:54;9.05;;;8.65;;
82147;SDS011;71718;50.480;12.110;2024-03-29T05:04:20;11.20;;;10.80;;
82147;SDS011;71718;50.480;12.110;2024-03-29T05:06:46;12.07;;;11.57;;
82147;SDS011;71718;50.480;12.110;2024-03-29T05:09:11;11.50;;;11.02;;
82147;SDS011;71718;50.480;12.110;2024-03-29T05:11:37;12.20;;;11.80;;
82147;SDS011;71718;50.480;12.110;2024-03-29T05:14:02;12.35;;;11.85;;
82147;SDS011;71718;50.480;12.110;2024-03-29T05:16:28;8.63;;;8.32;;
82147;SDS011;71718;50.480;12.110;2024-03-29T05:18:53;12.55;;;11.73;;
82147;SDS011;71718;50.480;12.110;2024-03-29T05:21:18;12.38;;;11.93;;
82147;SDS011;71718;50.480;12.110;2024-03-29T05:23:44;13.10;;;12.60;;
82147;SDS011;71718;50.480;12.110;2024-03-29T05:26:09;12.20;;;11.70;;
82147;SDS011;71718;50.480;12.110;2024-03-29T05:28:35;8.80;;;8.50;;
82147;SDS011;71718;50.480;12.110;2024-03-29T05:31:10;7.80;;;7.38;;
82147;SDS011;71718;50.480;12.110;2024-03-29T05:33:37;7.88;;;7.57;;
82147;SDS011;71718;50.480;12.110;2024-03-29T05:36:03;7.30;;;6.90;;
82147;SDS011;71718;50.480;12.110;2024-03-29T05:38:28;6.82;;;6.53;;
82147;SDS011;71718;50.480;12.110;2024-03-29T05:40:54;6.80;;;6.50;;
82147;SDS011;71718;50.480;12.110;2024-03-29T05:43:19;6.68;;;6.38;;
82147;SDS011;71718;50.480;12.110;2024-03-29T05:45:44;6.03;;;5.72;;
82147;SDS011;71718;50.480;12.110;2024-03-29T05:48:10;6.57;;;6.28;;
82147;SDS011;71718;50.480;12.110;2024-03-29T05:50:35;5.00;;;4.70;;
82147;SDS011;71718;50.480;12.110;2024-03-29T05:53:01;6.95;;;6.60;;
82147;SDS011;71718;50.480;12.110;2024-03-29T05:55:26;7.57;;;7.18;;
82147;SDS011;71718;50.480;12.110;2024-03-29T05:57:52;5.03;;;4.82;;
82147;SDS011;71718;50.480;12.110;2024-03-29T06:00:18;5.03;;;4.82;;
82147;SDS011;71718;50.480;12.110;2024-03-29T06:02:43;6.47;;;6.10;;
82147;SDS011;71718;50.480;12.110;2024-03-29T06:05:09;6.03;;;5.82;;
82147;SDS011;71718;50.480;12.110;2024-03-29T06:07:34;6.43;;;6.13;;
82147;SDS011;71718;50.480;12.110;2024-03-29T06:10:00;4.43;;;4.22;;
82147;SDS011;71718;50.480;12.110;2024-03-29T06:12:25;6.13;;;5.82;;
82147;SDS011;71718;50.480;12.110;2024-03-29T06:14:51;5.72;;;5.35;;
82147;SDS011;71718;50.480;12.110;2024-03-29T06:17:16;7.13;;;6.43;;
82147;SDS011;71718;50.480;12.110;2024-03-29T06:19:42;6.25;;;5.95;;
82147;SDS011;71718;50.480;12.110;2024-03-29T06:22:07;5.80;;;5.57;;
82147;SDS011;71718;50.480;12.110;2024-03-29T06:24:32;5.65;;;5.35;;
82147;SDS011;71718;50.480;12.110;2024-03-29T06:26:58;4.60;;;4.30;;
82147;SDS011;71718;50.480;12.110;2024-03-29T06:29:23;6.22;;;5.93;;
82147;SDS011;71718;50.480;12.110;2024-03-29T06:31:49;7.10;;;6.57;;
82147;SDS011;71718;50.480;12.110;2024-03-29T06:34:14;6.38;;;6.07;;
82147;SDS011;71718;50.480;12.110;2024-03-29T06:36:39;6.30;;;5.90;;
82147;SDS011;71718;50.480;12.110;2024-03-29T06:39:05;5.70;;;5.20;;
82147;SDS011;71718;50.480;12.110;2024-03-29T06:41:30;6.80;;;6.38;;
82147;SDS011;71718;50.480;12.110;2024-03-29T06:43:56;6.47;;;5.97;;
82147;SDS011;71718;50.480;12.110;2024-03-29T06:46:21;6.68;;;6.25;;
82147;SDS011;71718;50.480;12.110;2024-03-29T06:48:46;6.22;;;5.93;;
82147;SDS011;71718;50.480;12.110;2024-03-29T06:51:12;5.57;;;5.28;;
82147;SDS011;71718;50.480;12.110;2024-03-29T06:53:37;5.93;;;5.57;;
82147;SDS011;71718;50.480;12.110;2024-03-29T06:56:03;5.20;;;4.93;;
82147;SDS011;71718;50.480;12.110;2024-03-29T06:58:28;6.05;;;5.55;;
82147;SDS011;71718;50.480;12.110;2024-03-29T07:00:54;5.72;;;5.43;;
82147;SDS011;71718;50.480;12.110;2024-03-29T07:03:19;5.95;;;5.65;;
82147;SDS011;71718;50.480;12.110;2024-03-29T07:05:45;5.93;;;5.63;;
82147;SDS011;71718;50.480;12.110;2024-03-29T07:08:11;6.18;;;5.75;;
82147;SDS011;71718;50.480;12.110;2024-03-29T07:10:37;5.82;;;5.55;;
82147;SDS011;71718;50.480;12.110;2024-03-29T07:13:02;5.53;;;5.22;;
82147;SDS011;71718;50.480;12.110;2024-03-29T07:15:28;5.82;;;5.53;;
82147;SDS011;71718;50.480;12.110;2024-03-29T07:17:53;5.75;;;5.40;;
82147;SDS011;71718;50.480;12.110;2024-03-29T07:20:19;5.07;;;4.88;;
82147;SDS011;71718;50.480;12.110;2024-03-29T07:22:44;5.90;;;5.60;;
82147;SDS011;71718;50.480;12.110;2024-03-29T07:25:10;5.57;;;5.25;;
82147;SDS011;71718;50.480;12.110;2024-03-29T07:27:35;5.40;;;5.10;;
82147;SDS011;71718;50.480;12.110;2024-03-29T07:30:04;5.10;;;4.88;;
82147;SDS011;71718;50.480;12.110;2024-03-29T07:32:30;5.28;;;4.97;;
82147;SDS011;71718;50.480;12.110;2024-03-29T07:34:56;5.20;;;4.90;;
82147;SDS011;71718;50.480;12.110;2024-03-29T07:37:21;5.50;;;5.28;;
82147;SDS011;71718;50.480;12.110;2024-03-29T07:39:47;3.40;;;3.17;;
82147;SDS011;71718;50.480;12.110;2024-03-29T07:42:12;4.88;;;4.47;;
82147;SDS011;71718;50.480;12.110;2024-03-29T07:44:38;5.50;;;5.20;;
82147;SDS011;71718;50.480;12.110;2024-03-29T07:47:03;4.78;;;4.57;;
82147;SDS011;71718;50.480;12.110;2024-03-29T07:49:29;5.25;;;4.95;;
82147;SDS011;71718;50.480;12.110;2024-03-29T07:51:55;4.57;;;4.38;;
82147;SDS011;71718;50.480;12.110;2024-03-29T07:54:20;2.95;;;2.85;;
82147;SDS011;71718;50.480;12.110;2024-03-29T07:56:45;5.28;;;5.07;;
82147;SDS011;71718;50.480;12.110;2024-03-29T07:59:11;4.82;;;4.53;;
82147;SDS011;71718;50.480;12.110;2024-03-29T08:01:36;5.15;;;4.90;;
82147;SDS011;71718;50.480;12.110;2024-03-29T08:04:02;4.72;;;4.40;;
82147;SDS011;71718;50.480;12.110;2024-03-29T08:06:27;4.07;;;3.88;;
82147;SDS011;71718;50.480;12.110;2024-03-29T08:08:53;4.80;;;4.60;;
82147;SDS011;71718;50.480;12.110;2024-03-29T08:11:18;4.93;;;4.63;;
82147;SDS011;71718;50.480;12.110;2024-03-29T08:13:43;4.05;;;3.85;;
82147;SDS011;71718;50.480;12.110;2024-03-29T08:16:09;4.30;;;4.10;;
82147;SDS011;71718;50.480;12.110;2024-03-29T08:18:34;5.00;;;4.70;;
82147;SDS011;71718;50.480;12.110;2024-03-29T08:21:00;4.35;;;4.15;;
82147;SDS011;71718;50.480;12.110;2024-03-29T08:23:26;4.43;;;4.13;;
82147;SDS011;71718;50.480;12.110;2024-03-29T08:25:51;4.60;;;4.40;;
82147;SDS011;71718;50.480;12.110;2024-03-29T08:28:18;4.35;;;4.05;;
82147;SDS011;71718;50.480;12.110;2024-03-29T08:30:43;4.18;;;3.92;;
82147;SDS011;71718;50.480;12.110;2024-03-29T08:33:09;5.60;;;5.30;;
82147;SDS011;71718;50.480;12.110;2024-03-29T08:35:34;4.47;;;4.18;;
82147;SDS011;71718;50.480;12.110;2024-03-29T08:38:00;4.18;;;3.80;;
82147;SDS011;71718;50.480;12.110;2024-03-29T08:40:27;4.15;;;3.85;;
82147;SDS011;71718;50.480;12.110;2024-03-29T08:42:54;3.53;;;3.33;;
82147;SDS011;71718;50.480;12.110;2024-03-29T08:45:20;4.05;;;3.85;;
82147;SDS011;71718;50.480;12.110;2024-03-29T08:47:45;3.63;;;3.42;;
82147;SDS011;71718;50.480;12.110;2024-03-29T08:50:11;4.03;;;3.67;;
82147;SDS011;71718;50.480;12.110;2024-03-29T08:52:36;3.58;;;3.35;;
82147;SDS011;71718;50.480;12.110;2024-03-29T08:55:01;4.20;;;4.00;;
82147;SDS011;71718;50.480;12.110;2024-03-29T08:57:27;4.03;;;3.83;;
82147;SDS011;71718;50.480;12.110;2024-03-29T08:59:52;4.15;;;3.83;;
82147;SDS011;71718;50.480;12.110;2024-03-29T09:02:18;4.15;;;3.85;;
82147;SDS011;71718;50.480;12.110;2024-03-29T09:04:43;4.32;;;3.92;;
82147;SDS011;71718;50.480;12.110;2024-03-29T09:07:09;3.78;;;3.55;;
82147;SDS011;71718;50.480;12.110;2024-03-29T09:09:34;4.03;;;3.75;;
82147;SDS011;71718;50.480;12.110;2024-03-29T09:11:59;3.55;;;3.35;;
82147;SDS011;71718;50.480;12.110;2024-03-29T09:14:25;3.65;;;3.45;;
82147;SDS011;71718;50.480;12.110;2024-03-29T09:16:50;3.47;;;3.28;;
82147;SDS011;71718;50.480;12.110;2024-03-29T09:19:16;3.35;;;3.15;;
82147;SDS011;71718;50.480;12.110;2024-03-29T09:21:41;3.83;;;3.55;;
82147;SDS011;71718;50.480;12.110;2024-03-29T09:24:07;3.38;;;3.17;;
82147;SDS011;71718;50.480;12.110;2024-03-29T09:26:32;3.53;;;3.30;;
82147;SDS011;71718;50.480;12.110;2024-03-29T09:28:58;3.72;;;3.42;;
82147;SDS011;71718;50.480;12.110;2024-03-29T09:31:24;3.30;;;3.10;;
82147;SDS011;71718;50.480;12.110;2024-03-29T09:33:49;3.92;;;3.72;;
82147;SDS011;71718;50.480;12.110;2024-03-29T09:36:15;4.00;;;3.80;;
82147;SDS011;71718;50.480;12.110;2024-03-29T09:38:40;4.82;;;3.75;;
82147;SDS011;71718;50.480;12.110;2024-03-29T09:43:44;3.60;;;3.30;;
82147;SDS011;71718;50.480;12.110;2024-03-29T09:46:11;4.50;;;4.13;;
82147;SDS011;71718;50.480;12.110;2024-03-29T09:48:37;3.85;;;3.65;;
82147;SDS011;71718;50.480;12.110;2024-03-29T09:51:04;3.60;;;3.30;;
82147;SDS011;71718;50.480;12.110;2024-03-29T09:53:32;4.97;;;3.45;;
82147;SDS011;71718;50.480;12.110;2024-03-29T09:55:59;3.33;;;3.13;;
82147;SDS011;71718;50.480;12.110;2024-03-29T09:58:26;3.83;;;3.45;;
82147;SDS011;71718;50.480;12.110;2024-03-29T10:00:52;3.33;;;3.13;;
82147;SDS011;71718;50.480;12.110;2024-03-29T10:03:17;3.42;;;3.22;;
82147;SDS011;71718;50.480;12.110;2024-03-29T10:05:43;3.28;;;3.08;;
82147;SDS011;71718;50.480;12.110;2024-03-29T10:08:08;3.40;;;3.20;;
82147;SDS011;71718;50.480;12.110;2024-03-29T10:10:34;3.17;;;2.95;;
82147;SDS011;71718;50.480;12.110;2024-03-29T10:12:59;3.20;;;3.00;;
82147;SDS011;71718;50.480;12.110;2024-03-29T10:15:27;3.92;;;3.63;;
82147;SDS011;71718;50.480;12.110;2024-03-29T10:17:54;4.80;;;3.30;;
82147;SDS011;71718;50.480;12.110;2024-03-29T10:20:19;4.95;;;3.45;;
82147;SDS011;71718;50.480;12.110;2024-03-29T10:22:45;3.08;;;2.83;;
82147;SDS011;71718;50.480;12.110;2024-03-29T10:25:14;3.58;;;3.28;;
82147;SDS011;71718;50.480;12.110;2024-03-29T10:27:40;3.38;;;3.17;;
82147;SDS011;71718;50.480;12.110;2024-03-29T10:30:07;3.38;;;2.85;;
82147;SDS011;71718;50.480;12.110;2024-03-29T10:32:33;3.33;;;3.13;;
82147;SDS011;71718;50.480;12.110;2024-03-29T10:34:58;3.65;;;3.45;;
82147;SDS011;71718;50.480;12.110;2024-03-29T10:37:24;3.58;;;3.38;;
82147;SDS011;71718;50.480;12.110;2024-03-29T10:39:50;3.10;;;2.90;;
82147;SDS011;71718;50.480;12.110;2024-03-29T10:42:15;4.03;;;3.30;;
82147;SDS011;71718;50.480;12.110;2024-03-29T10:44:41;2.88;;;2.67;;
82147;SDS011;71718;50.480;12.110;2024-03-29T10:47:07;3.75;;;3.45;;
82147;SDS011;71718;50.480;12.110;2024-03-29T10:49:34;3.42;;;3.22;;
82147;SDS011;71718;50.480;12.110;2024-03-29T10:52:00;3.85;;;3.65;;
82147;SDS011;71718;50.480;12.110;2024-03-29T10:54:25;3.65;;;3.45;;
82147;SDS011;71718;50.480;12.110;2024-03-29T10:56:55;3.95;;;3.72;;
82147;SDS011;71718;50.480;12.110;2024-03-29T10:59:27;3.78;;;3.47;;
82147;SDS011;71718;50.480;12.110;2024-03-29T11:02:10;3.05;;;2.85;;
82147;SDS011;71718;50.480;12.110;2024-03-29T11:04:38;4.15;;;3.95;;
82147;SDS011;71718;50.480;12.110;2024-03-29T11:07:10;3.60;;;3.40;;
82147;SDS011;71718;50.480;12.110;2024-03-29T11:09:44;3.72;;;3.53;;
82147;SDS011;71718;50.480;12.110;2024-03-29T11:12:15;4.65;;;4.35;;
82147;SDS011;71718;50.480;12.110;2024-03-29T11:14:45;5.18;;;3.92;;
82147;SDS011;71718;50.480;12.110;2024-03-29T11:17:11;3.65;;;3.45;;
82147;SDS011;71718;50.480;12.110;2024-03-29T11:19:37;4.10;;;3.80;;
82147;SDS011;71718;50.480;12.110;2024-03-29T11:22:03;4.15;;;3.85;;
82147;SDS011;71718;50.480;12.110;2024-03-29T11:24:29;4.38;;;4.18;;
82147;SDS011;71718;50.480;12.110;2024-03-29T11:26:56;4.22;;;4.03;;
82147;SDS011;71718;50.480;12.110;2024-03-29T11:29:22;3.45;;;3.25;;
82147;SDS011;71718;50.480;12.110;2024-03-29T11:31:55;5.10;;;4.90;;
82147;SDS011;71718;50.480;12.110;2024-03-29T11:34:22;4.25;;;3.17;;
82147;SDS011;71718;50.480;12.110;2024-03-29T11:36:47;3.50;;;3.30;;
82147;SDS011;71718;50.480;12.110;2024-03-29T11:39:22;3.95;;;3.75;;
82147;SDS011;71718;50.480;12.110;2024-03-29T11:41:48;3.28;;;3.08;;
82147;SDS011;71718;50.480;12.110;2024-03-29T11:44:15;3.95;;;3.75;;
82147;SDS011;71718;50.480;12.110;2024-03-29T11:46:42;4.20;;;3.80;;
82147;SDS011;71718;50.480;12.110;2024-03-29T11:49:08;4.38;;;4.05;;
82147;SDS011;71718;50.480;12.110;2024-03-29T11:51:34;4.10;;;3.80;;
82147;SDS011;71718;50.480;12.110;2024-03-29T11:54:00;3.58;;;3.28;;
82147;SDS011;71718;50.480;12.110;2024-03-29T11:56:26;3.17;;;3.00;;
82147;SDS011;71718;50.480;12.110;2024-03-29T11:58:51;3.75;;;3.55;;
82147;SDS011;71718;50.480;12.110;2024-03-29T12:01:16;3.53;;;3.33;;
82147;SDS011;71718;50.480;12.110;2024-03-29T12:03:43;4.82;;;4.45;;
82147;SDS011;71718;50.480;12.110;2024-03-29T12:06:09;4.60;;;4.30;;
82147;SDS011;71718;50.480;12.110;2024-03-29T12:08:39;4.18;;;3.92;;
82147;SDS011;71718;50.480;12.110;2024-03-29T12:11:05;3.22;;;2.92;;
82147;SDS011;71718;50.480;12.110;2024-03-29T12:13:30;3.38;;;3.17;;
82147;SDS011;71718;50.480;12.110;2024-03-29T12:15:56;3.50;;;3.30;;
82147;SDS011;71718;50.480;12.110;2024-03-29T12:18:23;3.15;;;2.95;;
82147;SDS011;71718;50.480;12.110;2024-03-29T12:20:49;3.95;;;3.75;;
82147;SDS011;71718;50.480;12.110;2024-03-29T12:23:20;3.13;;;3.00;;
82147;SDS011;71718;50.480;12.110;2024-03-29T12:25:46;3.08;;;2.90;;
82147;SDS011;71718;50.480;12.110;2024-03-29T12:28:13;3.35;;;3.15;;
82147;SDS011;71718;50.480;12.110;2024-03-29T12:30:40;3.42;;;3.22;;
82147;SDS011;71718;50.480;12.110;2024-03-29T12:33:07;3.58;;;3.28;;
82147;SDS011;71718;50.480;12.110;2024-03-29T12:35:41;3.13;;;2.92;;
82147;SDS011;71718;50.480;12.110;2024-03-29T12:38:12;3.45;;;3.22;;
82147;SDS011;71718;50.480;12.110;2024-03-29T12:40:40;3.05;;;2.85;;
82147;SDS011;71718;50.480;12.110;2024-03-29T12:43:07;4.43;;;3.03;;
82147;SDS011;71718;50.480;12.110;2024-03-29T12:45:32;3.35;;;2.83;;
82147;SDS011;71718;50.480;12.110;2024-03-29T12:47:58;3.00;;;2.80;;
82147;SDS011;71718;50.480;12.110;2024-03-29T12:50:24;3.33;;;3.05;;
82147;SDS011;71718;50.480;12.110;2024-03-29T12:52:52;3.22;;;3.03;;
82147;SDS011;71718;50.480;12.110;2024-03-29T12:55:19;3.42;;;3.05;;
82147;SDS011;71718;50.480;12.110;2024-03-29T12:57:45;3.20;;;3.00;;
82147;SDS011;71718;50.480;12.110;2024-03-29T13:00:10;3.33;;;3.15;;
82147;SDS011;71718;50.480;12.110;2024-03-29T13:02:36;3.33;;;3.13;;
82147;SDS011;71718;50.480;12.110;2024-03-29T13:05:05;3.50;;;3.30;;
82147;SDS011;71718;50.480;12.110;2024-03-29T13:07:31;3.55;;;3.35;;
82147;SDS011;71718;50.480;12.110;2024-03-29T13:09:57;3.58;;;3.38;;
82147;SDS011;71718;50.480;12.110;2024-03-29T13:12:22;3.88;;;3.58;;
82147;SDS011;71718;50.480;12.110;2024-03-29T13:14:48;3.28;;;3.08;;
82147;SDS011;71718;50.480;12.110;2024-03-29T13:17:13;3.28;;;3.08;;
82147;SDS011;71718;50.480;12.110;2024-03-29T13:19:38;3.28;;;3.10;;
82147;SDS011;71718;50.480;12.110;2024-03-29T13:22:04;3.30;;;3.10;;
82147;SDS011;71718;50.480;12.110;2024-03-29T13:24:29;3.13;;;2.92;;
82147;SDS011;71718;50.480;12.110;2024-03-29T13:26:55;2.10;;;2.00;;
82147;SDS011;71718;50.480;12.110;2024-03-29T13:29:21;3.08;;;2.97;;
82147;SDS011;71718;50.480;12.110;2024-03-29T13:31:46;3.33;;;3.22;;
82147;SDS011;71718;50.480;12.110;2024-03-29T13:34:11;3.28;;;3.08;;
82147;SDS011;71718;50.480;12.110;2024-03-29T13:36:40;2.78;;;2.58;;
82147;SDS011;71718;50.480;12.110;2024-03-29T13:39:07;3.13;;;2.92;;
82147;SDS011;71718;50.480;12.110;2024-03-29T13:41:33;3.08;;;2.90;;
82147;SDS011;71718;50.480;12.110;2024-03-29T13:43:58;2.75;;;2.60;;
82147;SDS011;71718;50.480;12.110;2024-03-29T13:46:24;3.35;;;2.80;;
82147;SDS011;71718;50.480;12.110;2024-03-29T13:48:49;3.80;;;3.60;;
82147;SDS011;71718;50.480;12.110;2024-03-29T13:51:15;3.47;;;3.28;;
82147;SDS011;71718;50.480;12.110;2024-03-29T13:53:41;3.35;;;3.05;;
82147;SDS011;71718;50.480;12.110;2024-03-29T13:56:07;3.20;;;2.85;;
82147;SDS011;71718;50.480;12.110;2024-03-29T13:58:33;2.75;;;2.65;;
82147;SDS011;71718;50.480;12.110;2024-03-29T14:00:58;2.70;;;2.60;;
82147;SDS011;71718;50.480;12.110;2024-03-29T14:03:23;3.00;;;2.80;;
82147;SDS011;71718;50.480;12.110;2024-03-29T14:05:50;3.35;;;3.10;;
82147;SDS011;71718;50.480;12.110;2024-03-29T14:08:16;4.55;;;2.47;;
82147;SDS011;71718;50.480;12.110;2024-03-29T14:10:41;3.05;;;2.85;;
82147;SDS011;71718;50.480;12.110;2024-03-29T14:13:07;3.25;;;3.05;;
82147;SDS011;71718;50.480;12.110;2024-03-29T14:15:32;2.97;;;2.80;;
82147;SDS011;71718;50.480;12.110;2024-03-29T14:17:57;3.22;;;3.03;;
82147;SDS011;71718;50.480;12.110;2024-03-29T14:20:23;2.97;;;2.78;;